createdAt,value
2018-01-13T00:00:57.885Z,7.63
2018-01-13T00:03:25.357Z,8.00
2018-01-13T00:05:52.814Z,8.87
2018-01-13T00:08:20.269Z,8.27
2018-01-13T00:10:47.727Z,9.03
2018-01-13T00:13:15.250Z,6.93
2018-01-13T00:15:42.892Z,8.53
2018-01-13T00:18:10.386Z,6.83
2018-01-13T00:20:37.917Z,8.67
2018-01-13T00:23:05.386Z,9.37
2018-01-13T00:25:33.146Z,10.83
2018-01-13T00:28:00.802Z,8.93
2018-01-13T00:30:28.364Z,8.03
2018-01-13T00:32:56.132Z,8.13
2018-01-13T00:35:23.637Z,6.53
2018-01-13T00:37:51.085Z,6.40
2018-01-13T00:40:18.693Z,6.87
2018-01-13T00:42:46.174Z,9.77
2018-01-13T00:45:13.712Z,8.57
2018-01-13T00:47:41.168Z,7.43
2018-01-13T00:50:08.635Z,6.17
2018-01-13T00:52:36.099Z,9.50
2018-01-13T00:55:03.585Z,7.80
2018-01-13T00:57:31.296Z,7.27
2018-01-13T00:59:59.107Z,6.87
2018-01-13T01:02:26.855Z,7.43
2018-01-13T01:04:54.497Z,8.60
2018-01-13T01:07:21.954Z,9.67
2018-01-13T01:09:49.449Z,6.63
2018-01-13T01:12:16.893Z,7.50
2018-01-13T01:14:44.366Z,7.03
2018-01-13T01:17:12.821Z,5.63
2018-01-13T01:19:40.589Z,10.23
2018-01-13T01:22:08.061Z,5.80
2018-01-13T01:24:35.684Z,11.03
2018-01-13T01:27:03.176Z,7.77
2018-01-13T01:29:30.641Z,8.73
2018-01-13T01:31:58.094Z,8.77
2018-01-13T01:34:25.637Z,6.67
2018-01-13T01:36:53.113Z,9.13
2018-01-13T01:39:20.733Z,9.20
2018-01-13T01:41:48.325Z,6.57
2018-01-13T01:44:15.777Z,6.43
2018-01-13T01:46:43.232Z,7.20
2018-01-13T01:49:11.021Z,7.13
2018-01-13T01:51:39.080Z,8.80
2018-01-13T01:54:06.829Z,7.17
2018-01-13T01:56:34.299Z,9.87
2018-01-13T01:59:01.745Z,8.63
2018-01-13T02:01:29.207Z,8.80
2018-01-13T02:03:56.759Z,8.33
2018-01-13T02:06:24.237Z,7.43
2018-01-13T02:08:51.900Z,5.53
2018-01-13T02:11:19.349Z,6.60
2018-01-13T02:13:47.122Z,6.57
2018-01-13T02:16:14.661Z,7.13
2018-01-13T02:18:42.133Z,6.70
2018-01-13T02:21:09.725Z,8.37
2018-01-13T02:23:37.257Z,8.70
2018-01-13T02:26:04.717Z,6.17
2018-01-13T02:28:32.183Z,6.77
2018-01-13T02:30:59.808Z,7.53
2018-01-13T02:33:27.281Z,7.47
2018-01-13T02:35:54.859Z,7.60
2018-01-13T02:38:22.500Z,6.83
2018-01-13T02:40:49.977Z,7.40
2018-01-13T02:43:17.435Z,7.00
2018-01-13T02:45:44.881Z,9.13
2018-01-13T02:48:12.449Z,9.57
2018-01-13T02:50:39.905Z,8.43
2018-01-13T02:53:07.568Z,8.07
2018-01-13T02:55:35.065Z,6.20
2018-01-13T02:58:02.525Z,6.23
2018-01-13T03:00:30.056Z,7.47
2018-01-13T03:02:57.705Z,6.47
2018-01-13T03:05:25.285Z,6.47
2018-01-13T03:07:53.038Z,8.43
2018-01-13T03:10:20.496Z,6.43
2018-01-13T03:12:47.956Z,7.77
2018-01-13T03:15:15.413Z,6.17
2018-01-13T03:17:43.177Z,6.23
2018-01-13T03:20:10.636Z,8.20
2018-01-13T03:22:38.088Z,5.80
2018-01-13T03:25:05.872Z,6.73
2018-01-13T03:27:33.336Z,7.87
2018-01-13T03:30:01.080Z,5.30
2018-01-13T03:32:28.541Z,6.57
2018-01-13T03:34:56.179Z,5.00
2018-01-13T03:37:23.628Z,8.20
2018-01-13T03:39:51.101Z,7.50
2018-01-13T03:42:18.575Z,5.33
2018-01-13T03:44:46.132Z,7.30
2018-01-13T03:47:13.895Z,6.87
2018-01-13T03:49:41.352Z,7.43
2018-01-13T03:52:09.106Z,7.43
2018-01-13T03:54:36.597Z,8.03
2018-01-13T03:57:04.051Z,7.80
2018-01-13T03:59:31.685Z,8.00
2018-01-13T04:01:59.144Z,7.73
2018-01-13T04:04:26.609Z,7.83
2018-01-13T04:06:54.095Z,13.20
2018-01-13T04:09:21.540Z,6.13
2018-01-13T04:11:49.101Z,7.47
2018-01-13T04:14:16.557Z,7.90
2018-01-13T04:16:44.128Z,7.93
2018-01-13T04:19:11.640Z,6.57
2018-01-13T04:21:39.100Z,6.30
2018-01-13T04:24:06.695Z,7.27
2018-01-13T04:26:34.153Z,6.73
2018-01-13T04:29:01.808Z,6.00
2018-01-13T04:31:29.375Z,8.17
2018-01-13T04:33:56.836Z,6.87
2018-01-13T04:36:24.464Z,6.90
2018-01-13T04:38:51.988Z,6.07
2018-01-13T04:41:19.511Z,6.70
2018-01-13T04:43:47.271Z,5.80
2018-01-13T04:46:14.921Z,7.67
2018-01-13T04:48:42.415Z,4.83
2018-01-13T04:51:09.876Z,6.97
2018-01-13T04:53:37.335Z,7.07
2018-01-13T04:56:04.888Z,8.40
2018-01-13T04:58:32.368Z,5.60
2018-01-13T05:00:59.978Z,8.27
2018-01-13T05:03:27.556Z,5.50
2018-01-13T05:05:55.082Z,7.03
2018-01-13T05:08:22.655Z,5.87
2018-01-13T05:10:50.122Z,6.23
2018-01-13T05:13:17.580Z,5.83
2018-01-13T05:15:45.066Z,6.67
2018-01-13T05:18:12.624Z,7.53
2018-01-13T05:20:40.255Z,6.70
2018-01-13T05:23:07.713Z,6.50
2018-01-13T05:25:35.310Z,6.07
2018-01-13T05:28:02.763Z,5.90
2018-01-13T05:30:30.288Z,6.20
2018-01-13T05:32:57.863Z,5.57
2018-01-13T05:35:25.309Z,6.00
2018-01-13T05:37:52.780Z,7.47
2018-01-13T05:40:20.257Z,6.13
2018-01-13T05:42:47.779Z,5.67
2018-01-13T05:45:15.237Z,6.63
2018-01-13T05:47:42.692Z,6.40
2018-01-13T05:50:10.396Z,6.10
2018-01-13T05:52:37.957Z,6.40
2018-01-13T05:55:05.405Z,6.90
2018-01-13T05:57:33.054Z,7.13
2018-01-13T06:00:00.516Z,6.10
2018-01-13T06:02:28.013Z,6.50
2018-01-13T06:04:55.469Z,7.20
2018-01-13T06:07:22.921Z,7.30
2018-01-13T06:09:50.475Z,8.03
2018-01-13T06:12:18.117Z,6.23
2018-01-13T06:14:45.676Z,6.40
2018-01-13T06:17:13.138Z,6.20
2018-01-13T06:19:40.804Z,7.73
2018-01-13T06:22:08.261Z,5.93
2018-01-13T06:24:35.717Z,6.93
2018-01-13T06:27:03.177Z,7.57
2018-01-13T06:29:30.634Z,7.57
2018-01-13T06:31:58.089Z,6.50
2018-01-13T06:34:25.549Z,6.63
2018-01-13T06:36:53.004Z,8.23
2018-01-13T06:39:20.490Z,7.57
2018-01-13T06:41:47.941Z,7.63
2018-01-13T06:44:15.476Z,9.47
2018-01-13T06:46:42.924Z,7.60
2018-01-13T06:49:10.401Z,7.07
2018-01-13T06:51:38.165Z,7.87
2018-01-13T06:54:05.624Z,6.40
2018-01-13T06:56:33.073Z,10.27
2018-01-13T06:59:00.856Z,6.33
2018-01-13T07:01:28.472Z,6.67
2018-01-13T07:03:55.925Z,6.50
2018-01-13T07:06:23.424Z,6.77
2018-01-13T07:08:50.878Z,7.13
2018-01-13T07:11:18.420Z,6.93
2018-01-13T07:13:46.074Z,6.80
2018-01-13T07:16:13.629Z,10.07
2018-01-13T07:18:41.094Z,7.73
2018-01-13T07:21:08.547Z,8.00
2018-01-13T07:23:36.017Z,8.03
2018-01-13T07:26:03.488Z,8.27
2018-01-13T07:28:30.946Z,7.87
2018-01-13T07:30:58.419Z,16.20
2018-01-13T07:33:25.888Z,13.13
2018-01-13T07:35:53.388Z,26.00
2018-01-13T07:38:21.004Z,30.97
2018-01-13T07:40:48.465Z,35.07
2018-01-13T07:43:16.017Z,47.20
2018-01-13T07:45:44.073Z,42.70
2018-01-13T07:48:11.715Z,36.97
2018-01-13T07:50:39.338Z,36.10
2018-01-13T07:53:06.829Z,40.20
2018-01-13T07:55:34.539Z,35.23
2018-01-13T07:58:02.300Z,32.23
2018-01-13T08:00:29.880Z,28.90
2018-01-13T08:02:57.521Z,29.13
2018-01-13T08:05:25.753Z,28.27
2018-01-13T08:07:56.010Z,33.27
2018-01-13T08:10:23.976Z,31.50
2018-01-13T08:12:52.113Z,31.90
2018-01-13T08:15:19.822Z,30.40
2018-01-13T08:17:47.276Z,34.00
2018-01-13T08:20:15.291Z,31.00
2018-01-13T08:22:43.591Z,35.53
2018-01-13T08:25:15.545Z,33.40
2018-01-13T08:27:43.156Z,35.77
2018-01-13T08:30:10.789Z,34.47
2018-01-13T08:32:38.290Z,41.20
2018-01-13T08:35:05.753Z,38.07
2018-01-13T08:37:35.091Z,45.90
2018-01-13T08:40:03.337Z,45.47
2018-01-13T08:42:30.809Z,69.50
2018-01-13T08:45:01.802Z,60.47
2018-01-13T08:47:29.574Z,66.97
2018-01-13T08:49:57.336Z,63.10
2018-01-13T08:52:24.822Z,48.90
2018-01-13T08:54:52.571Z,42.13
2018-01-13T08:57:20.032Z,37.47
2018-01-13T08:59:47.657Z,35.57
2018-01-13T09:02:30.747Z,40.27
2018-01-13T09:04:58.976Z,36.67
2018-01-13T09:07:26.763Z,33.00
2018-01-13T09:09:54.221Z,31.23
2018-01-13T09:12:21.993Z,33.07
2018-01-13T09:14:50.626Z,38.70
2018-01-13T09:17:18.133Z,32.20
2018-01-13T09:19:45.896Z,36.93
2018-01-13T09:22:13.514Z,34.77
2018-01-13T09:24:40.978Z,30.83
2018-01-13T09:27:08.432Z,29.77
2018-01-13T09:29:35.900Z,34.47
2018-01-13T09:32:03.510Z,33.60
2018-01-13T09:34:31.164Z,29.40
2018-01-13T09:36:59.485Z,25.53
2018-01-13T09:39:26.944Z,32.77
2018-01-13T09:41:54.538Z,31.67
2018-01-13T09:44:22.301Z,25.20
2018-01-13T09:46:49.789Z,27.10
2018-01-13T09:49:17.660Z,25.03
2018-01-13T09:51:45.189Z,27.67
2018-01-13T09:54:12.648Z,27.53
2018-01-13T09:56:40.117Z,28.23
2018-01-13T09:59:07.605Z,31.07
2018-01-13T10:01:35.062Z,24.47
2018-01-13T10:04:02.611Z,26.83
2018-01-13T10:06:30.078Z,28.87
2018-01-13T10:08:57.597Z,27.83
2018-01-13T10:11:25.157Z,24.50
2018-01-13T10:13:52.819Z,23.63
2018-01-13T10:16:21.404Z,22.47
2018-01-13T10:18:50.388Z,27.57
2018-01-13T10:21:17.857Z,28.27
2018-01-13T10:23:45.426Z,28.10
2018-01-13T10:26:12.891Z,28.60
2018-01-13T10:28:41.401Z,27.17
2018-01-13T10:31:09.853Z,29.03
2018-01-13T10:33:37.609Z,27.67
2018-01-13T10:36:07.101Z,23.67
2018-01-13T10:38:37.209Z,27.93
2018-01-13T10:41:04.855Z,28.47
2018-01-13T10:43:33.013Z,23.10
2018-01-13T10:46:00.661Z,33.27
2018-01-13T10:48:28.164Z,28.57
2018-01-13T10:50:55.979Z,27.03
2018-01-13T10:53:23.662Z,29.73
2018-01-13T10:55:51.276Z,29.03
2018-01-13T10:58:18.986Z,30.47
2018-01-13T11:00:46.620Z,26.20
2018-01-13T11:03:14.706Z,26.37
2018-01-13T11:05:42.179Z,22.53
2018-01-13T11:08:09.627Z,26.53
2018-01-13T11:10:37.109Z,22.00
2018-01-13T11:13:09.378Z,25.33
2018-01-13T11:15:36.858Z,23.33
2018-01-13T11:18:04.320Z,31.70
2018-01-13T11:20:31.849Z,21.47
2018-01-13T11:22:59.816Z,21.53
2018-01-13T11:25:28.571Z,24.17
2018-01-13T11:27:56.916Z,22.87
2018-01-13T11:30:24.376Z,25.83
2018-01-13T11:32:52.053Z,20.37
2018-01-13T11:35:19.624Z,19.37
2018-01-13T11:37:47.185Z,25.60
2018-01-13T11:40:14.651Z,18.40
2018-01-13T11:42:42.101Z,21.80
2018-01-13T11:45:09.864Z,20.07
2018-01-13T11:47:37.498Z,18.77
2018-01-13T11:50:05.401Z,22.57
2018-01-13T11:52:32.949Z,23.47
2018-01-13T11:55:00.487Z,20.30
2018-01-13T11:57:28.069Z,19.00
2018-01-13T11:59:55.589Z,21.93
2018-01-13T12:02:29.796Z,21.53
2018-01-13T12:04:57.487Z,19.90
2018-01-13T12:07:24.973Z,18.20
2018-01-13T12:09:52.527Z,18.37
2018-01-13T12:12:20.206Z,18.33
2018-01-13T12:14:49.561Z,18.20
2018-01-13T12:17:18.998Z,15.40
2018-01-13T12:19:47.602Z,16.03
2018-01-13T12:22:16.325Z,18.63
2018-01-13T12:24:44.594Z,17.83
2018-01-13T12:27:15.089Z,17.83
2018-01-13T12:29:42.874Z,16.80
2018-01-13T12:32:10.495Z,17.43
2018-01-13T12:34:37.973Z,18.60
2018-01-13T12:37:05.540Z,19.23
2018-01-13T12:39:34.410Z,16.33
2018-01-13T12:42:02.970Z,17.60
2018-01-13T12:44:30.477Z,16.60
2018-01-13T12:46:57.932Z,18.27
2018-01-13T12:49:25.689Z,16.77
2018-01-13T12:51:53.349Z,15.47
2018-01-13T12:54:21.020Z,16.80
2018-01-13T12:56:48.822Z,17.33
2018-01-13T12:59:16.296Z,16.30
2018-01-13T13:01:43.749Z,17.83
2018-01-13T13:04:12.192Z,18.30
2018-01-13T13:06:39.984Z,15.43
2018-01-13T13:09:08.170Z,15.63
2018-01-13T13:11:35.677Z,17.80
2018-01-13T13:14:03.189Z,14.97
2018-01-13T13:16:30.697Z,15.47
2018-01-13T13:18:58.178Z,14.87
2018-01-13T13:21:25.813Z,17.43
2018-01-13T13:23:54.696Z,16.77
2018-01-13T13:26:22.268Z,15.47
2018-01-13T13:28:49.732Z,17.57
2018-01-13T13:31:17.223Z,13.83
2018-01-13T13:33:44.728Z,15.37
2018-01-13T13:36:12.368Z,16.97
2018-01-13T13:38:39.848Z,16.77
2018-01-13T13:41:07.369Z,16.57
2018-01-13T13:43:35.044Z,12.67
2018-01-13T13:46:02.657Z,13.67
2018-01-13T13:48:30.421Z,14.80
2018-01-13T13:50:58.002Z,14.30
2018-01-13T13:53:26.255Z,14.03
2018-01-13T13:55:53.872Z,14.70
2018-01-13T13:58:21.340Z,15.90
2018-01-13T14:00:48.931Z,13.43
2018-01-13T14:03:16.708Z,12.53
2018-01-13T14:05:44.188Z,12.03
2018-01-13T14:08:11.825Z,13.90
2018-01-13T14:10:39.316Z,13.77
2018-01-13T14:13:06.771Z,11.97
2018-01-13T14:15:34.297Z,14.33
2018-01-13T14:18:01.760Z,13.80
2018-01-13T14:20:29.526Z,13.27
2018-01-13T14:22:57.346Z,15.20
2018-01-13T14:25:24.926Z,14.80
2018-01-13T14:27:52.599Z,14.23
2018-01-13T14:30:20.179Z,14.17
2018-01-13T14:32:47.636Z,12.43
2018-01-13T14:35:15.185Z,13.60
2018-01-13T14:37:42.673Z,12.50
2018-01-13T14:40:10.140Z,13.00
2018-01-13T14:42:37.881Z,13.33
2018-01-13T14:45:05.347Z,11.97
2018-01-13T14:47:33.001Z,13.73
2018-01-13T14:50:01.471Z,12.60
2018-01-13T14:52:28.930Z,12.83
2018-01-13T14:54:56.565Z,13.97
2018-01-13T14:57:24.033Z,12.67
2018-01-13T14:59:51.514Z,12.67
2018-01-13T15:02:19.013Z,11.70
2018-01-13T15:04:46.557Z,12.67
2018-01-13T15:07:14.284Z,12.40
2018-01-13T15:09:42.016Z,14.83
2018-01-13T15:12:09.518Z,12.80
2018-01-13T15:14:37.284Z,12.47
2018-01-13T15:17:04.821Z,14.33
2018-01-13T15:19:32.414Z,12.10
2018-01-13T15:21:59.878Z,12.20
2018-01-13T15:24:27.332Z,12.63
2018-01-13T15:26:54.804Z,11.67
2018-01-13T15:29:22.327Z,11.80
2018-01-13T15:31:50.090Z,11.03
2018-01-13T15:34:17.564Z,11.17
2018-01-13T15:36:45.031Z,12.93
2018-01-13T15:39:12.770Z,10.97
2018-01-13T15:41:40.240Z,15.53
2018-01-13T15:44:07.692Z,11.47
2018-01-13T15:46:35.148Z,12.03
2018-01-13T15:49:02.905Z,12.53
2018-01-13T15:51:30.360Z,11.47
2018-01-13T15:53:57.838Z,11.13
2018-01-13T15:56:25.497Z,13.40
2018-01-13T15:58:52.969Z,12.00
2018-01-13T16:01:21.205Z,11.27
2018-01-13T16:03:48.800Z,10.97
2018-01-13T16:06:16.256Z,11.43
2018-01-13T16:08:43.806Z,13.27
2018-01-13T16:11:11.388Z,10.23
2018-01-13T16:13:38.846Z,10.67
2018-01-13T16:16:06.485Z,12.43
2018-01-13T16:18:34.061Z,10.30
2018-01-13T16:21:01.524Z,12.43
2018-01-13T16:23:28.981Z,10.80
2018-01-13T16:25:56.429Z,10.57
2018-01-13T16:28:23.996Z,10.10
2018-01-13T16:30:51.588Z,10.33
2018-01-13T16:33:19.221Z,10.90
2018-01-13T16:35:46.689Z,11.50
2018-01-13T16:38:14.166Z,10.77
2018-01-13T16:40:41.624Z,12.90
2018-01-13T16:43:09.068Z,9.57
2018-01-13T16:45:36.536Z,9.83
2018-01-13T16:48:04.060Z,10.00
2018-01-13T16:50:31.826Z,10.70
2018-01-13T16:52:59.597Z,11.10
2018-01-13T16:55:27.141Z,10.33
2018-01-13T16:57:54.741Z,10.83
2018-01-13T17:00:22.260Z,11.13
2018-01-13T17:02:49.714Z,9.07
2018-01-13T17:05:17.365Z,9.63
2018-01-13T17:07:44.961Z,9.20
2018-01-13T17:10:12.584Z,10.40
2018-01-13T17:12:40.066Z,9.97
2018-01-13T17:15:07.531Z,12.50
2018-01-13T17:17:34.990Z,10.23
2018-01-13T17:20:02.441Z,11.23
2018-01-13T17:22:29.916Z,11.03
2018-01-13T17:24:57.457Z,10.13
2018-01-13T17:27:25.096Z,8.50
2018-01-13T17:29:52.560Z,9.33
2018-01-13T17:32:20.029Z,9.17
2018-01-13T17:34:47.490Z,9.60
2018-01-13T17:37:14.946Z,8.77
2018-01-13T17:39:42.512Z,10.40
2018-01-13T17:42:10.268Z,23.07
2018-01-13T17:44:37.753Z,20.60
2018-01-13T17:47:05.508Z,22.30
2018-01-13T17:49:33.156Z,33.20
2018-01-13T17:52:00.601Z,23.13
2018-01-13T17:54:28.060Z,21.20
2018-01-13T17:56:55.586Z,23.13
2018-01-13T17:59:23.046Z,24.97
2018-01-13T18:01:50.549Z,20.90
2018-01-13T18:04:18.033Z,19.60
2018-01-13T18:06:45.794Z,23.70
2018-01-13T18:09:13.257Z,19.73
2018-01-13T18:11:40.721Z,21.23
2018-01-13T18:14:08.507Z,22.10
2018-01-13T18:16:36.100Z,23.73
2018-01-13T18:19:03.598Z,18.77
2018-01-13T18:21:31.081Z,15.67
2018-01-13T18:23:58.606Z,16.37
2018-01-13T18:26:26.082Z,14.07
2018-01-13T18:28:53.533Z,15.30
2018-01-13T18:31:21.184Z,18.93
2018-01-13T18:33:49.514Z,23.37
2018-01-13T18:36:17.067Z,16.73
2018-01-13T18:38:44.582Z,21.70
2018-01-13T18:41:12.213Z,16.37
2018-01-13T18:43:39.698Z,18.10
2018-01-13T18:46:07.173Z,20.33
2018-01-13T18:48:35.537Z,19.43
2018-01-13T18:51:03.005Z,20.70
2018-01-13T18:53:30.472Z,17.90
2018-01-13T18:55:57.921Z,15.37
2018-01-13T18:58:25.373Z,13.67
2018-01-13T19:00:52.901Z,14.13
2018-01-13T19:03:20.402Z,16.17
2018-01-13T19:05:47.838Z,17.33
2018-01-13T19:08:15.296Z,19.80
2018-01-13T19:10:42.932Z,19.80
2018-01-13T19:13:10.435Z,16.17
2018-01-13T19:15:37.989Z,14.80
2018-01-13T19:18:05.744Z,21.50
2018-01-13T19:20:33.202Z,23.67
2018-01-13T19:23:00.973Z,18.17
2018-01-13T19:25:28.749Z,15.03
2018-01-13T19:27:56.208Z,15.33
2018-01-13T19:30:23.838Z,14.30
2018-01-13T19:32:51.416Z,11.37
2018-01-13T19:35:19.053Z,12.70
2018-01-13T19:37:46.513Z,10.67
2018-01-13T19:40:13.976Z,13.83
2018-01-13T19:42:41.560Z,19.83
2018-01-13T19:45:09.013Z,14.50
2018-01-13T19:47:36.486Z,12.40
2018-01-13T19:50:04.105Z,14.00
2018-01-13T19:52:31.596Z,17.03
2018-01-13T19:54:59.055Z,14.93
2018-01-13T19:57:26.603Z,13.90
2018-01-13T19:59:54.073Z,16.43
2018-01-13T20:02:21.539Z,18.40
2018-01-13T20:04:49.455Z,18.07
2018-01-13T20:07:17.047Z,16.03
2018-01-13T20:09:44.526Z,13.80
2018-01-13T20:12:12.311Z,12.63
2018-01-13T20:14:39.766Z,17.20
2018-01-13T20:17:07.218Z,16.60
2018-01-13T20:19:34.958Z,13.87
2018-01-13T20:22:02.598Z,15.03
2018-01-13T20:24:30.059Z,13.87
2018-01-13T20:26:57.637Z,15.10
2018-01-13T20:29:25.277Z,13.30
2018-01-13T20:31:53.654Z,14.30
2018-01-13T20:34:21.156Z,11.73
2018-01-13T20:36:48.607Z,13.40
2018-01-13T20:39:16.077Z,14.70
2018-01-13T20:41:44.536Z,14.07
2018-01-13T20:44:12.012Z,11.53
2018-01-13T20:46:39.462Z,12.27
2018-01-13T20:49:07.223Z,12.13
2018-01-13T20:51:34.992Z,13.70
2018-01-13T20:54:02.649Z,14.27
2018-01-13T20:56:30.126Z,16.37
2018-01-13T20:58:57.580Z,10.93
2018-01-13T21:01:25.041Z,15.47
2018-01-13T21:03:52.501Z,12.03
2018-01-13T21:06:20.726Z,16.47
2018-01-13T21:08:48.433Z,17.97
2018-01-13T21:11:16.181Z,14.40
2018-01-13T21:13:43.650Z,17.53
2018-01-13T21:16:11.401Z,11.13
2018-01-13T21:18:38.863Z,10.67
2018-01-13T21:21:06.678Z,12.00
2018-01-13T21:23:34.321Z,13.00
2018-01-13T21:26:01.819Z,11.27
2018-01-13T21:28:29.312Z,11.23
2018-01-13T21:30:56.777Z,9.80
2018-01-13T21:33:24.230Z,11.53
2018-01-13T21:35:51.909Z,11.90
2018-01-13T21:38:19.381Z,9.87
2018-01-13T21:40:46.841Z,11.90
2018-01-13T21:43:14.391Z,12.23
2018-01-13T21:45:41.846Z,8.27
2018-01-13T21:48:09.292Z,14.10
2018-01-13T21:50:37.044Z,10.53
2018-01-13T21:53:04.521Z,9.40
2018-01-13T21:55:32.264Z,10.80
2018-01-13T21:57:59.750Z,9.70
2018-01-13T22:00:27.588Z,10.00
2018-01-13T22:02:55.058Z,8.43
2018-01-13T22:05:22.628Z,14.00
2018-01-13T22:07:50.081Z,8.67
2018-01-13T22:10:17.753Z,9.53
2018-01-13T22:12:45.208Z,8.57
2018-01-13T22:15:12.860Z,7.90
2018-01-13T22:17:40.517Z,8.90
2018-01-13T22:20:07.978Z,8.07
2018-01-13T22:22:35.541Z,8.87
2018-01-13T22:25:03.083Z,8.27
2018-01-13T22:27:30.668Z,9.10
2018-01-13T22:29:59.067Z,9.53
2018-01-13T22:32:27.097Z,10.60
2018-01-13T22:34:54.616Z,10.63
2018-01-13T22:37:22.295Z,9.20
2018-01-13T22:39:49.786Z,9.93
2018-01-13T22:42:17.270Z,9.00
2018-01-13T22:44:44.729Z,9.57
2018-01-13T22:47:12.210Z,8.63
2018-01-13T22:49:39.661Z,7.93
2018-01-13T22:52:07.188Z,11.07
2018-01-13T22:54:34.838Z,18.67
2018-01-13T22:57:02.308Z,10.37
2018-01-13T22:59:29.783Z,10.30
2018-01-13T23:01:57.241Z,9.13
2018-01-13T23:04:25.721Z,9.63
2018-01-13T23:06:53.377Z,7.97
2018-01-13T23:09:20.845Z,7.17
2018-01-13T23:11:49.305Z,10.03
2018-01-13T23:14:17.109Z,8.53
2018-01-13T23:16:44.854Z,8.87
2018-01-13T23:19:12.399Z,7.53
2018-01-13T23:21:39.979Z,8.70
2018-01-13T23:24:07.431Z,7.77
2018-01-13T23:26:34.893Z,9.40
2018-01-13T23:29:02.361Z,7.87
2018-01-13T23:31:29.821Z,8.40
2018-01-13T23:33:57.277Z,6.73
2018-01-13T23:36:24.905Z,8.17
2018-01-13T23:38:52.583Z,7.63
2018-01-13T23:41:20.216Z,8.43
2018-01-13T23:43:47.676Z,8.40
2018-01-13T23:46:15.158Z,6.57
2018-01-13T23:48:42.639Z,7.37
2018-01-13T23:51:10.085Z,7.13
2018-01-13T23:53:37.609Z,6.97
2018-01-13T23:56:06.156Z,7.03
2018-01-13T23:58:34.779Z,6.47
